KMKC/MKC METAR and TAF weather

Enter ICAO airport designator
Station Type Date Time Source
KMKC METAR 2020/12/05 05:54 UTC NOAA

KMKC 050554Z 00000KT 10SM CLR 01/M02 A3012 RMK AO2 SLP202 T00111017 10083 20011 401281033 51006


Station Type Date Time Source
KMKC Decoded METAR 2020/12/05 05:54 UTC NOAA

KANSAS CITY DOWNTOWN AIRPORT , MO, United States (KMKC) 39-07N 094-36W 227M
Dec 05, 2020 - 12:54 AM EST / 2020.12.05 0554 UTC
Wind: Calm:0
Visibility: 10 mile(s):0
Sky conditions: clear
Temperature: 34.0 F (1.1 C)
Dew Point: 28.9 F (-1.7 C)
Relative Humidity: 81%
Pressure (altimeter): 30.12 in. Hg (1019 hPa)
Pressure tendency: 0.02 inches (0.6 hPa) higher than three hours ago
ob: KMKC 050554Z 00000KT 10SM CLR 01/M02 A3012 RMK AO2 SLP202 T00111017 10083 20011 401281033 51006
cycle: 6

Station Type Date Time Source
KMKC TAF 2020/12/05 06:22 UTC NOAA

TAF KMKC 050520Z 0506/0606 VRB03KT P6SM SKC
FM051600 33008KT P6SM SKC

Example: see airport list